Chattanooga, TN

7:46 AM EST on January 18, 2017 (GMT -0500)
TN River Valley Gorge | | Change Station

Elev 640 ft 35.12 °N, 85.39 °W | Updated 14 seconds ago

Mostly Cloudy
Mostly Cloudy
55.1 °F
Feels Like 55.1 °F
N
2.0
Wind Variable Wind from NNW

Today
High -- | Low -- °F
--% Chance of Precip.
Yesterday
High -- | Low -- °F
Precip. -- in
Pressure 30.12 in
Visibility 10.0 miles
Clouds Scattered Clouds 4700 ft
Mostly Cloudy 6000 ft
Mostly Cloudy 8000 ft
Dew Point 49.0 °F
Humidity 81%
Rainfall 0.00 in
Snow Depth Not available.
7:47 AM 5:55 PM
Waning Gibbous, 63% visible
METAR KCHA 181153Z 27003KT 10SM SCT047 BKN060 BKN080 15/12 A3014 RMK AO2 DZE20 SLP200 P0000 60000 T01500117 10189 20150 53007
Pressure 30.12 in
Visibility 10.0 miles
Clouds Scattered Clouds 4700 ft
Mostly Cloudy 6000 ft
Mostly Cloudy 8000 ft
Dew Point 49.0 °F
Humidity 81%
Rainfall 0.00 in
Snow Depth Not available.
7:47 AM 5:55 PM
Waning Gibbous, 63% visible
METAR KCHA 181153Z 27003KT 10SM SCT047 BKN060 BKN080 15/12 A3014 RMK AO2 DZE20 SLP200 P0000 60000 T01500117 10189 20150 53007

Get Your Daily Forecast Email!

Thanks for signing up!

Be on the lookout for a verification email in your inbox.

You'll start receiving the daily forecast at 8 AM.

×

10-Day Weather Forecast

Almanac

Astronomy

Jan. 18, 2017 Rise Set
Actual Time
Civil Twilight
Nautical Twilight
Astronomical Twilight
Moon
Length of Visible Light
Length of Day
Tomorrow will be .
, % of the Moon is Illuminated

Today's Extremes

State Highs State Lows

Community

WunderPhotos

Upload Photos

1,962,540 photos uploaded!

WunderBlog® & News

Nearby

Air Quality

  Air Quality AQ Index Pollutant
Not available.

Snow Depth

Station Depth Elevation

Earthquake Activity

City Distance Mag. Time & Date
Minimum magnitude displayed is 2.5.

Coastal Water Temperatures

Place Temperature

Stations

Nearby Weather Stations

Station Location Temp. Windchill Dew Point Humidity Wind Precip. Elev Updated Type
                   

Watches & Warnings

There are currently no watches in effect.